Terminal Aerodrome Forecast
Issued by NWS Sioux Falls, SD

Home | Current Version | Previous Version | Text Only | Print | Product List | Glossary On
Versions: 1 2 3 4 5 6 7 8 9 10 11 12 13 14 15 16
000
FTUS43 KFSD 201120
TAFHON
TAF
KHON 201120Z 2012/2112 31014G21KT P6SM SCT050
     FM201400 31018G25KT P6SM SCT040
     FM201600 32025G35KT P6SM SCT060
     FM210100 31014G20KT P6SM SKC
     FM210300 30012KT P6SM SKC=

USA.gov is the U.S. government's official web portal to all federal, state and local government web resources and services.